createdAt,value
2018-04-19T04:00:50.903Z,88.80
2018-04-19T04:03:19.627Z,89.70
2018-04-19T04:05:48.375Z,90.20
2018-04-19T04:08:17.112Z,90.50
2018-04-19T04:10:45.840Z,90.30
2018-04-19T04:13:14.531Z,91.10
2018-04-19T04:15:43.251Z,90.20
2018-04-19T04:18:23.834Z,90.80
2018-04-19T04:21:03.478Z,90.80
2018-04-19T04:23:47.044Z,90.40
2018-04-19T04:26:15.770Z,91.20
2018-04-19T04:28:44.515Z,91.40
2018-04-19T04:31:14.744Z,91.00
2018-04-19T04:33:43.558Z,93.90
2018-04-19T04:36:12.261Z,94.40
2018-04-19T04:38:40.907Z,95.00
2018-04-19T04:41:09.625Z,95.20
2018-04-19T04:43:38.419Z,95.40
2018-04-19T04:46:07.898Z,95.90
2018-04-19T04:48:36.647Z,95.90
2018-04-19T04:51:05.154Z,95.60
2018-04-19T04:53:33.651Z,96.30
2018-04-19T04:56:02.419Z,96.30
2018-04-19T04:58:31.150Z,96.50
2018-04-19T05:00:59.890Z,96.40
2018-04-19T05:03:28.611Z,96.60
2018-04-19T05:05:57.145Z,96.70
2018-04-19T05:08:25.632Z,95.90
2018-04-19T05:10:54.319Z,96.70
2018-04-19T05:13:23.037Z,95.70
2018-04-19T05:15:51.755Z,97.30
2018-04-19T05:18:20.461Z,97.30
2018-04-19T05:20:49.744Z,94.60
2018-04-19T05:23:18.485Z,94.60
2018-04-19T05:25:47.418Z,94.90
2018-04-19T05:28:16.073Z,92.00
2018-04-19T05:30:45.068Z,88.80
2018-04-19T05:33:13.529Z,88.70
2018-04-19T05:35:41.979Z,92.90
2018-04-19T05:38:10.485Z,78.40
2018-04-19T05:40:38.940Z,80.00
2018-04-19T05:43:07.423Z,62.90
2018-04-19T05:45:35.861Z,66.90
2018-04-19T05:48:04.305Z,72.70
2018-04-19T05:50:32.777Z,68.90
2018-04-19T05:53:01.264Z,57.20
2018-04-19T05:55:29.719Z,55.30
2018-04-19T05:57:58.966Z,56.00
2018-04-19T06:00:27.427Z,55.90
2018-04-19T06:02:55.875Z,50.80
2018-04-19T06:05:25.105Z,45.20
2018-04-19T06:07:53.559Z,44.90
2018-04-19T06:10:22.761Z,43.80
2018-04-19T06:12:51.992Z,43.70
2018-04-19T06:15:20.447Z,43.70
2018-04-19T06:17:49.670Z,41.40
2018-04-19T06:20:18.141Z,41.40
2018-04-19T06:22:46.384Z,44.10
2018-04-19T06:25:14.811Z,45.40
2018-04-19T06:27:43.235Z,41.40
2018-04-19T06:30:11.444Z,41.50
2018-04-19T06:32:40.117Z,40.10
2018-04-19T06:35:09.354Z,40.60
2018-04-19T06:37:37.809Z,40.50
2018-04-19T06:40:06.471Z,38.80
2018-04-19T06:42:34.925Z,37.20
2018-04-19T06:45:03.404Z,39.20
2018-04-19T06:47:31.899Z,38.00
2018-04-19T06:50:00.327Z,39.10
2018-04-19T06:52:28.771Z,37.70
2018-04-19T06:54:57.279Z,35.60
2018-04-19T06:57:26.503Z,38.00
2018-04-19T06:59:54.962Z,37.90
2018-04-19T07:02:24.164Z,35.80
2018-04-19T07:04:53.143Z,38.00
2018-04-19T07:07:22.363Z,37.10
2018-04-19T07:09:50.874Z,37.10
2018-04-19T07:12:19.334Z,33.60
2018-04-19T07:14:47.813Z,35.50
2018-04-19T07:17:16.238Z,33.60
2018-04-19T07:19:44.671Z,32.30
2018-04-19T07:22:13.902Z,31.70
2018-04-19T07:24:42.344Z,31.60
2018-04-19T07:27:11.616Z,35.00
2018-04-19T07:29:40.064Z,34.90
2018-04-19T07:32:08.525Z,30.40
2018-04-19T07:34:36.987Z,29.20
2018-04-19T07:37:06.855Z,30.00
2018-04-19T07:39:35.331Z,29.90
2018-04-19T07:42:03.789Z,30.40
2018-04-19T07:44:32.266Z,30.70
2018-04-19T07:47:00.720Z,30.80
2018-04-19T07:49:29.941Z,31.10
2018-04-19T07:51:59.175Z,30.50
2018-04-19T07:54:27.615Z,30.40
2018-04-19T07:56:56.135Z,31.30
2018-04-19T07:59:24.628Z,30.40
2018-04-19T08:01:53.060Z,29.20
2018-04-19T08:04:22.303Z,28.80
2018-04-19T08:06:50.786Z,28.70
2018-04-19T08:09:19.294Z,27.40
2018-04-19T08:11:47.748Z,26.50
2018-04-19T08:14:16.204Z,28.60
2018-04-19T08:16:45.443Z,26.40
2018-04-19T08:19:14.150Z,26.40
2018-04-19T08:21:42.611Z,24.50
2018-04-19T08:24:16.287Z,27.40
2018-04-19T08:26:45.650Z,22.40
2018-04-19T08:29:14.089Z,22.40
2018-04-19T08:31:42.571Z,22.90
2018-04-19T08:34:11.052Z,23.90
2018-04-19T08:36:39.491Z,26.20
2018-04-19T08:39:08.199Z,22.60
2018-04-19T08:41:36.631Z,23.30
2018-04-19T08:44:05.078Z,25.90
2018-04-19T08:46:33.531Z,24.70
2018-04-19T08:49:02.729Z,25.90
2018-04-19T08:51:31.199Z,25.90
2018-04-19T08:54:00.143Z,24.10
2018-04-19T08:56:29.378Z,23.40
2018-04-19T08:58:57.996Z,23.30
2018-04-19T09:01:26.447Z,25.90
2018-04-19T09:03:54.957Z,25.00
2018-04-19T09:06:24.172Z,22.50
2018-04-19T09:08:52.604Z,22.50
2018-04-19T09:11:21.053Z,25.10
2018-04-19T09:13:49.528Z,25.60
2018-04-19T09:16:17.971Z,23.20
2018-04-19T09:18:47.191Z,23.10
2018-04-19T09:21:15.667Z,23.10
2018-04-19T09:23:44.885Z,24.60
2018-04-19T09:26:13.316Z,24.60
2018-04-19T09:28:41.528Z,24.00
2018-04-19T09:31:09.979Z,25.50
2018-04-19T09:33:38.423Z,25.20
2018-04-19T09:36:06.884Z,22.90
2018-04-19T09:38:35.343Z,27.90
2018-04-19T09:41:04.596Z,23.60
2018-04-19T09:43:33.035Z,23.70
2018-04-19T09:46:01.584Z,22.30
2018-04-19T09:48:30.037Z,21.70
2018-04-19T09:50:58.530Z,23.90
2018-04-19T09:53:26.750Z,25.10
2018-04-19T09:55:55.215Z,23.30
2018-04-19T09:58:23.649Z,21.70
2018-04-19T10:00:57.551Z,22.60
2018-04-19T10:03:25.756Z,24.80
2018-04-19T10:05:59.950Z,24.20
2018-04-19T10:08:28.412Z,22.00
2018-04-19T10:10:56.885Z,23.20
2018-04-19T10:13:26.106Z,21.50
2018-04-19T10:15:54.630Z,21.40
2018-04-19T10:18:24.023Z,22.20
2018-04-19T10:20:52.451Z,22.10
2018-04-19T10:23:21.674Z,24.10
2018-04-19T10:25:50.147Z,24.10
2018-04-19T10:28:18.655Z,24.50
2018-04-19T10:30:47.116Z,22.60
2018-04-19T10:33:15.567Z,22.50
2018-04-19T10:35:44.825Z,21.20
2018-04-19T10:38:13.259Z,21.20
2018-04-19T10:40:42.470Z,24.20
2018-04-19T10:43:10.763Z,24.20
2018-04-19T10:45:38.872Z,22.70
2018-04-19T10:48:07.299Z,25.80
2018-04-19T10:50:35.779Z,25.00
2018-04-19T10:53:04.975Z,24.30
2018-04-19T10:55:34.189Z,23.00
2018-04-19T10:58:02.678Z,22.90
2018-04-19T11:00:31.130Z,24.70
2018-04-19T11:03:00.388Z,23.00
2018-04-19T11:05:28.860Z,23.10
2018-04-19T11:07:57.347Z,24.50
2018-04-19T11:10:25.808Z,24.90
2018-04-19T11:12:54.243Z,23.50
2018-04-19T11:15:22.688Z,22.70
2018-04-19T11:17:51.175Z,23.50
2018-04-19T11:20:19.636Z,26.20
2018-04-19T11:22:48.083Z,26.10
2018-04-19T11:25:17.430Z,24.70
2018-04-19T11:27:45.907Z,24.60
2018-04-19T11:30:14.373Z,24.50
2018-04-19T11:32:42.491Z,24.50
2018-04-19T11:35:11.155Z,22.60
2018-04-19T11:37:40.392Z,26.50
2018-04-19T11:40:08.841Z,26.70
2018-04-19T11:42:37.523Z,24.50
2018-04-19T11:45:05.999Z,25.00
2018-04-19T11:47:34.511Z,23.70
2018-04-19T11:50:03.052Z,24.40
2018-04-19T11:52:31.552Z,24.20
2018-04-19T11:55:00.059Z,26.80
2018-04-19T11:57:28.529Z,26.00
2018-04-19T11:59:56.736Z,24.50
2018-04-19T12:02:25.398Z,24.50
2018-04-19T12:04:53.955Z,26.40
2018-04-19T12:07:22.426Z,23.60
2018-04-19T12:09:50.886Z,23.40
2018-04-19T12:12:20.119Z,23.90
2018-04-19T12:14:48.604Z,23.90
2018-04-19T12:17:17.110Z,26.40
2018-04-19T12:19:45.475Z,25.90
2018-04-19T12:22:14.710Z,24.70
2018-04-19T12:24:43.167Z,24.60
2018-04-19T12:27:12.419Z,25.60
2018-04-19T12:29:41.727Z,25.20
2018-04-19T12:32:10.032Z,25.10
2018-04-19T12:34:38.518Z,25.80
2018-04-19T12:37:06.992Z,26.30
2018-04-19T12:39:35.463Z,25.20
2018-04-19T12:42:04.887Z,28.40
2018-04-19T12:44:33.840Z,24.80
2018-04-19T12:47:03.124Z,25.20
2018-04-19T12:49:31.662Z,25.10
2018-04-19T12:52:00.184Z,26.00
2018-04-19T12:54:28.879Z,25.70
2018-04-19T12:56:57.332Z,26.10
2018-04-19T12:59:25.823Z,26.80
2018-04-19T13:01:54.287Z,25.80
2018-04-19T13:04:22.787Z,26.40
2018-04-19T13:06:51.215Z,25.30
2018-04-19T13:09:19.695Z,25.30
2018-04-19T13:11:48.901Z,26.90
2018-04-19T13:14:17.329Z,26.90
2018-04-19T13:16:45.850Z,26.90
2018-04-19T13:19:15.072Z,28.40
2018-04-19T13:21:43.519Z,28.40
2018-04-19T13:24:11.967Z,28.30
2018-04-19T13:26:40.415Z,26.30
2018-04-19T13:29:09.609Z,27.50
2018-04-19T13:31:38.062Z,27.40
2018-04-19T13:34:07.363Z,26.70
2018-04-19T13:36:35.823Z,26.80
2018-04-19T13:39:03.424Z,28.10
2018-04-19T13:41:33.072Z,27.30
2018-04-19T13:44:01.523Z,27.30
2018-04-19T13:46:29.990Z,29.40
2018-04-19T13:48:58.423Z,28.80
2018-04-19T13:51:27.652Z,27.40
2018-04-19T13:53:55.909Z,27.40
2018-04-19T13:56:24.127Z,28.10
2018-04-19T13:58:53.335Z,28.10
2018-04-19T14:01:22.558Z,27.40
2018-04-19T14:03:51.048Z,27.30
2018-04-19T14:06:19.499Z,28.80
2018-04-19T14:08:48.703Z,28.30
2018-04-19T14:11:17.158Z,28.20
2018-04-19T14:13:45.639Z,28.20
2018-04-19T14:16:15.380Z,26.60
2018-04-19T14:18:43.747Z,26.90
2018-04-19T14:21:12.951Z,30.50
2018-04-19T14:23:41.504Z,30.50
2018-04-19T14:26:10.115Z,25.70
2018-04-19T14:28:39.312Z,28.40
2018-04-19T14:31:08.618Z,29.40
2018-04-19T14:33:37.236Z,29.40
2018-04-19T14:36:05.699Z,29.10
2018-04-19T14:38:35.119Z,27.30
2018-04-19T14:41:03.602Z,27.30
2018-04-19T14:43:32.060Z,27.00
2018-04-19T14:46:01.260Z,27.90
2018-04-19T14:48:29.719Z,27.90
2018-04-19T14:50:58.186Z,28.80
2018-04-19T14:53:26.652Z,28.20
2018-04-19T14:55:55.135Z,32.40
2018-04-19T14:58:23.643Z,27.50
2018-04-19T15:00:52.177Z,29.70
2018-04-19T15:03:20.632Z,27.80
2018-04-19T15:05:49.840Z,30.20
2018-04-19T15:08:18.308Z,30.20
2018-04-19T15:10:47.545Z,28.40
2018-04-19T15:13:16.752Z,29.80
2018-04-19T15:15:44.992Z,29.70
2018-04-19T15:18:14.424Z,28.70
2018-04-19T15:20:42.868Z,28.60
2018-04-19T15:23:12.096Z,30.40
2018-04-19T15:25:40.637Z,30.30
2018-04-19T15:28:09.155Z,29.50
2018-04-19T15:30:37.639Z,29.20
2018-04-19T15:33:06.140Z,29.20
2018-04-19T15:35:34.588Z,30.30
2018-04-19T15:38:03.834Z,31.00
2018-04-19T15:40:32.293Z,30.90
2018-04-19T15:43:00.788Z,28.70
2018-04-19T15:45:29.371Z,29.70
2018-04-19T15:47:57.813Z,29.70
2018-04-19T15:50:27.051Z,30.40
2018-04-19T15:52:55.539Z,30.40
2018-04-19T15:55:23.975Z,33.90
2018-04-19T15:57:53.274Z,31.90
2018-04-19T16:00:22.675Z,37.40
2018-04-19T16:02:51.899Z,36.80
2018-04-19T16:05:20.343Z,36.80
2018-04-19T16:07:48.792Z,36.20
2018-04-19T16:10:17.231Z,36.10
2018-04-19T16:12:46.483Z,42.00
2018-04-19T16:15:14.930Z,42.00
2018-04-19T16:17:43.364Z,39.10
2018-04-19T16:20:11.865Z,37.30
2018-04-19T16:22:41.081Z,34.90
2018-04-19T16:25:10.288Z,36.20
2018-04-19T16:27:38.758Z,36.20
2018-04-19T16:30:08.007Z,40.30
2018-04-19T16:32:36.611Z,40.30
2018-04-19T16:35:04.820Z,39.30
2018-04-19T16:37:34.054Z,42.70
2018-04-19T16:40:03.471Z,43.60
2018-04-19T16:42:31.671Z,43.60
2018-04-19T16:44:59.898Z,42.50
2018-04-19T16:47:28.396Z,37.10
2018-04-19T16:49:57.751Z,47.40
2018-04-19T16:52:26.960Z,43.60
2018-04-19T16:54:56.267Z,46.50
2018-04-19T16:57:25.495Z,46.90
2018-04-19T16:59:54.036Z,46.90
2018-04-19T17:02:22.515Z,48.40
2018-04-19T17:04:51.495Z,50.10
2018-04-19T17:07:19.944Z,50.00
2018-04-19T17:09:48.564Z,53.30
2018-04-19T17:12:16.782Z,53.30
2018-04-19T17:14:45.285Z,54.20
2018-04-19T17:17:13.906Z,58.40
2018-04-19T17:19:42.416Z,60.10
2018-04-19T17:22:11.634Z,63.00
2018-04-19T17:24:40.095Z,63.00
2018-04-19T17:27:09.287Z,66.40
2018-04-19T17:29:37.899Z,66.30
2018-04-19T17:32:06.353Z,69.00
2018-04-19T17:34:34.825Z,69.70
2018-04-19T17:37:03.444Z,70.00
2018-04-19T17:39:31.907Z,72.30
2018-04-19T17:42:01.176Z,72.30
2018-04-19T17:44:29.633Z,72.30
2018-04-19T17:46:58.851Z,75.40
2018-04-19T17:49:27.343Z,75.40
2018-04-19T17:51:55.788Z,74.00
2018-04-19T17:54:24.216Z,74.70
2018-04-19T17:56:52.708Z,77.90
2018-04-19T17:59:21.924Z,77.80
2018-04-19T18:01:50.369Z,77.80
2018-04-19T18:04:18.914Z,78.90
2018-04-19T18:06:47.369Z,80.00
2018-04-19T18:09:15.811Z,81.00
2018-04-19T18:11:44.270Z,81.50
2018-04-19T18:14:12.711Z,82.50
2018-04-19T18:16:41.944Z,83.10
2018-04-19T18:19:10.369Z,83.10
2018-04-19T18:21:39.015Z,84.30
2018-04-19T18:24:07.529Z,85.30
2018-04-19T18:26:35.973Z,86.00
2018-04-19T18:29:04.419Z,85.30
2018-04-19T18:31:33.719Z,86.00
2018-04-19T18:34:02.931Z,86.10
2018-04-19T18:36:32.160Z,85.50
2018-04-19T18:39:00.603Z,85.50
2018-04-19T18:41:29.312Z,86.10
2018-04-19T18:43:57.795Z,87.10
2018-04-19T18:46:26.243Z,87.00
2018-04-19T18:48:54.694Z,87.50
2018-04-19T18:51:23.155Z,88.90
2018-04-19T18:53:51.684Z,89.20
2018-04-19T18:56:20.119Z,89.80
2018-04-19T18:58:48.626Z,89.30
2018-04-19T19:01:17.391Z,90.10
2018-04-19T19:03:45.919Z,90.10
2018-04-19T19:06:14.161Z,90.90
2018-04-19T19:08:42.761Z,91.20
2018-04-19T19:11:11.207Z,91.60
2018-04-19T19:13:39.456Z,91.40
2018-04-19T19:16:08.855Z,91.90
2018-04-19T19:18:49.283Z,92.20
2018-04-19T19:21:17.781Z,92.20
2018-04-19T19:23:46.267Z,92.10
2018-04-19T19:26:14.786Z,92.20
2018-04-19T19:28:55.117Z,92.70
2018-04-19T19:31:23.414Z,92.70
2018-04-19T19:33:52.791Z,93.40
2018-04-19T19:36:21.240Z,93.40
2018-04-19T19:38:50.331Z,92.80
2018-04-19T19:41:19.696Z,93.10
2018-04-19T19:43:50.174Z,93.20
2018-04-19T19:46:18.638Z,93.00
2018-04-19T19:48:47.129Z,93.40
2018-04-19T19:51:15.579Z,93.90
2018-04-19T19:53:44.823Z,94.40
2018-04-19T19:56:13.053Z,94.30
2018-04-19T19:58:41.647Z,94.70
2018-04-19T20:01:10.113Z,94.70
2018-04-19T20:03:39.394Z,94.20
2018-04-19T20:06:09.648Z,94.20
2018-04-19T20:08:38.854Z,93.60
2018-04-19T20:11:07.335Z,93.60
2018-04-19T20:13:35.783Z,93.40
2018-04-19T20:16:04.240Z,93.70
2018-04-19T20:18:32.939Z,94.30
2018-04-19T20:21:01.435Z,94.40
2018-04-19T20:23:29.893Z,94.70
2018-04-19T20:25:58.383Z,94.90
2018-04-19T20:28:26.846Z,94.60
2018-04-19T20:30:55.328Z,94.70
2018-04-19T20:33:23.828Z,94.70
2018-04-19T20:35:52.315Z,94.90
2018-04-19T20:38:20.756Z,95.50
2018-04-19T20:40:49.250Z,95.60
2018-04-19T20:43:17.707Z,95.00
2018-04-19T20:45:45.814Z,95.40
2018-04-19T20:48:15.081Z,96.10
2018-04-19T20:50:43.547Z,96.10
2018-04-19T20:53:12.771Z,97.00
2018-04-19T20:55:41.231Z,96.90
2018-04-19T20:58:10.481Z,96.60
2018-04-19T21:00:38.923Z,96.90
2018-04-19T21:03:08.151Z,97.20
2018-04-19T21:05:36.683Z,97.50
2018-04-19T21:08:04.939Z,97.50
2018-04-19T21:10:33.132Z,97.90
2018-04-19T21:13:01.331Z,97.50
2018-04-19T21:15:29.788Z,96.80
2018-04-19T21:17:58.227Z,96.00
2018-04-19T21:20:26.708Z,95.60
2018-04-19T21:22:54.951Z,95.90
2018-04-19T21:25:24.337Z,95.40
2018-04-19T21:27:53.160Z,95.40
2018-04-19T21:30:21.663Z,95.50
2018-04-19T21:32:50.155Z,95.70
2018-04-19T21:35:18.628Z,96.20
2018-04-19T21:37:47.076Z,96.40
2018-04-19T21:40:15.627Z,97.60
2018-04-19T21:42:44.154Z,98.10
2018-04-19T21:45:12.589Z,97.80
2018-04-19T21:47:41.238Z,98.30
2018-04-19T21:50:09.474Z,98.10
2018-04-19T21:52:38.691Z,98.00
2018-04-19T21:55:07.907Z,98.50
2018-04-19T21:57:36.388Z,98.20
2018-04-19T22:00:04.235Z,97.70
